Burlington, Indiana
Current Conditions -  °F | °C
As of 7:35 AM on Saturday 01 Nov 2014 (Local Time) from KGGP Reporting Station
Clear Clear  
Wind Chill: 17°   Ceiling: Unl
Heat Index: 28°   Visibility: 10mi
Dew Point: 21°   Wind: 14mph
Humidity: 74%   Direction: 350°N
Pressure: 30.33"   Gusts: NA
Location:  40.48°N, 86.39°W
Report Text: KGGP 011135Z AUTO 35012KT 10SM CLR M02/M06 A3033 RMK AO2
Loading
Personal Weather Stations






























Interactive Weather Map New forecast layout! Learn more

10-Day Weather Forecast

Advertisements
Track Severe Weather on mobile